Time;durP1;ratioP1;P1;durP2;ratioP2;P2;SDS_P1;SDS_P2;PMS_P1;PMS_P2;Temp;Humidity;BMP_temperature;BMP_pressure;BME280_temperature;BME280_humidity;BME280_pressure;Samples;Min_cycle;Max_cycle;Signal;HPM_P1;HPM_P2
2022/06/11 00:01:52;;;;;;;14.83;11.83;;;;;;;18.69;100.00;98646.94;5069274;28;20203;-84
2022/06/11 00:04:22;;;;;;;16.27;10.77;;;;;;;18.73;100.00;98648.28;5069356;28;20238;-89
2022/06/11 00:06:52;;;;;;;14.13;10.83;;;;;;;18.73;100.00;98653.44;5069415;28;20219;-89
2022/06/11 00:09:20;;;;;;;15.27;11.20;;;;;;;18.69;100.00;98643.56;5069388;28;20241;-83
2022/06/11 00:11:47;;;;;;;13.53;10.93;;;;;;;18.71;100.00;98641.63;5069085;28;20212;-83
2022/06/11 00:14:14;;;;;;;14.80;11.20;;;;;;;18.68;100.00;98645.34;5069388;28;20299;-89
2022/06/11 00:16:41;;;;;;;14.77;11.00;;;;;;;18.68;100.00;98644.56;5069335;28;20233;-89
2022/06/11 00:19:08;;;;;;;16.83;12.23;;;;;;;18.71;100.00;98634.66;5069167;28;20245;-83
2022/06/11 00:21:37;;;;;;;14.63;11.43;;;;;;;18.72;100.00;98635.44;5068916;28;20675;-83
2022/06/11 00:24:05;;;;;;;16.80;11.80;;;;;;;18.69;100.00;98630.63;5068915;28;20241;-90
2022/06/11 00:26:32;;;;;;;18.70;11.60;;;;;;;18.67;100.00;98633.38;5068178;28;20222;-89
2022/06/11 00:28:58;;;;;;;16.90;12.80;;;;;;;18.67;100.00;98633.38;5068758;28;20284;-83
2022/06/11 00:31:24;;;;;;;16.03;12.10;;;;;;;18.66;100.00;98636.94;5068947;28;20733;-90
2022/06/11 00:33:51;;;;;;;16.53;11.33;;;;;;;18.68;100.00;98634.19;5069060;28;20698;-84
2022/06/11 00:36:18;;;;;;;18.10;12.90;;;;;;;18.68;100.00;98634.19;5068772;28;20207;-89
2022/06/11 00:38:46;;;;;;;16.63;13.03;;;;;;;18.64;100.00;98628.53;5068768;28;20645;-87
2022/06/11 00:41:14;;;;;;;20.17;13.40;;;;;;;18.62;100.00;98625.34;5068666;28;20229;-88
2022/06/11 00:43:42;;;;;;;17.50;12.70;;;;;;;18.66;100.00;98626.59;5068543;28;20245;-90
2022/06/11 00:46:39;;;;;;;17.67;13.13;;;;;;;18.64;100.00;98623.34;5068670;28;20312;-83
2022/06/11 00:49:14;;;;;;;19.47;13.17;;;;;;;18.63;100.00;98632.13;5068815;28;20611;-83
2022/06/11 00:51:41;;;;;;;16.97;12.70;;;;;;;18.63;100.00;98634.72;5068596;28;20269;-83
2022/06/11 00:54:14;;;;;;;19.67;13.50;;;;;;;18.66;100.00;98629.19;5068452;28;20237;-89
2022/06/11 00:56:48;;;;;;;17.17;12.50;;;;;;;18.59;100.00;98620.50;5068582;28;20211;-89
2022/06/11 00:59:18;;;;;;;17.57;12.53;;;;;;;18.55;100.00;98624.41;5068557;28;20321;-83
2022/06/11 01:01:47;;;;;;;20.23;13.20;;;;;;;18.53;100.00;98631.56;5068361;28;20484;-89
2022/06/11 01:04:47;;;;;;;19.93;13.60;;;;;;;18.51;100.00;98633.50;5068661;28;20236;-82
2022/06/11 01:07:54;;;;;;;19.93;13.00;;;;;;;18.51;100.00;98638.69;4986528;28;20227;-82
2022/06/11 01:10:35;;;;;;;20.50;13.97;;;;;;;18.48;100.00;98634.66;5042504;28;20221;-83
2022/06/11 01:13:10;;;;;;;20.87;13.70;;;;;;;18.44;100.00;98642.91;5068557;28;20215;-83
2022/06/11 01:15:42;;;;;;;20.57;13.53;;;;;;;18.50;100.00;98634.47;5068360;28;20663;-88
2022/06/11 01:18:23;;;;;;;21.47;13.90;;;;;;;18.49;100.00;98638.03;5068282;28;20222;-88
2022/06/11 01:20:56;;;;;;;20.73;14.17;;;;;;;18.48;100.00;98644.22;5068519;28;20711;-82
2022/06/11 01:24:07;;;;;;;21.20;14.43;;;;;;;18.46;100.00;98648.75;5068127;28;20241;-88
2022/06/11 01:27:08;;;;;;;19.43;13.87;;;;;;;18.46;100.00;98646.16;5068122;28;20207;-89
2022/06/11 01:29:52;;;;;;;22.77;16.27;;;;;;;18.49;100.00;98645.81;5068323;28;20816;-81
2022/06/11 01:32:28;;;;;;;22.40;15.50;;;;;;;18.46;100.00;98646.16;5068123;28;20214;-81
2022/06/11 01:35:10;;;;;;;23.10;16.50;;;;;;;18.45;100.00;98647.16;5068229;28;20239;-82
2022/06/11 01:37:41;;;;;;;22.73;16.27;;;;;;;18.44;100.00;98661.03;5071125;28;20220;-81
2022/06/11 01:40:17;;;;;;;25.13;16.00;;;;;;;18.42;100.00;98650.06;5071856;28;20787;-82
2022/06/11 01:42:50;;;;;;;25.07;16.60;;;;;;;18.47;100.00;98658.09;5071484;28;20240;-88
2022/06/11 01:45:20;;;;;;;24.00;17.27;;;;;;;18.47;100.00;98663.28;5071328;28;20236;-82
2022/06/11 01:47:49;;;;;;;22.83;16.27;;;;;;;18.48;100.00;98667.50;5071414;28;20230;-82
2022/06/11 01:50:17;;;;;;;20.70;15.83;;;;;;;18.49;100.00;98663.94;5071305;28;20384;-89
2022/06/11 01:53:17;;;;;;;20.77;15.50;;;;;;;18.54;100.00;98669.41;5071441;28;20274;-81
2022/06/11 01:56:00;;;;;;;20.67;14.73;;;;;;;18.51;100.00;98672.34;5070820;28;20626;-82
2022/06/11 01:58:41;;;;;;;21.33;15.23;;;;;;;18.51;100.00;98672.34;5071453;28;20217;-81
2022/06/11 02:01:17;;;;;;;20.17;14.87;;;;;;;18.46;100.00;98678.03;5071389;28;20772;-89
2022/06/11 02:03:54;;;;;;;23.80;15.33;;;;;;;18.53;100.00;98676.38;5071171;28;20234;-89
2022/06/11 02:06:45;;;;;;;21.87;14.83;;;;;;;18.48;100.00;98675.28;5071274;28;20609;-88
2022/06/11 02:09:22;;;;;;;19.53;14.13;;;;;;;18.52;100.00;98682.50;5071297;28;20230;-81
2022/06/11 02:11:51;;;;;;;24.93;16.23;;;;;;;18.50;100.00;98678.47;5071147;28;20220;-89
2022/06/11 02:14:23;;;;;;;23.57;15.23;;;;;;;18.47;100.00;98679.66;5071195;28;20248;-89
2022/06/11 02:16:53;;;;;;;22.60;15.77;;;;;;;18.50;100.00;98673.28;5070929;28;20700;-89
2022/06/11 02:19:28;;;;;;;23.70;15.90;;;;;;;18.50;100.00;98673.28;5070924;28;20237;-87
2022/06/11 02:21:58;;;;;;;23.37;15.80;;;;;;;18.48;100.00;98675.28;5070777;28;20246;-83
2022/06/11 02:24:29;;;;;;;23.13;15.57;;;;;;;18.51;100.00;98677.53;5071093;28;20669;-90
2022/06/11 02:27:00;;;;;;;21.47;16.60;;;;;;;18.55;100.00;98676.19;5070843;28;20255;-82
2022/06/11 02:29:27;;;;;;;21.67;15.80;;;;;;;18.52;100.00;98673.94;5070915;28;20267;-89
2022/06/11 02:31:57;;;;;;;25.27;16.23;;;;;;;18.54;100.00;98679.75;5071005;28;20583;-89
2022/06/11 02:34:26;;;;;;;24.53;16.07;;;;;;;18.48;100.00;98685.63;5070834;28;20240;-82
2022/06/11 02:36:58;;;;;;;25.67;16.47;;;;;;;18.53;100.00;98684.13;5070862;28;20670;-82
2022/06/11 02:39:26;;;;;;;25.20;17.23;;;;;;;18.51;100.00;98682.69;5070511;28;20240;-83
2022/06/11 02:41:53;;;;;;;26.93;16.90;;;;;;;18.51;100.00;98680.09;5070659;28;20217;-83
2022/06/11 02:44:20;;;;;;;26.13;17.40;;;;;;;18.55;100.00;98691.72;5070711;28;20902;-82
2022/06/11 02:46:46;;;;;;;25.03;17.43;;;;;;;18.48;100.00;98690.81;5070626;28;20211;-83
2022/06/11 02:49:17;;;;;;;27.47;17.83;;;;;;;18.48;100.00;98695.97;5069594;28;20723;-83
2022/06/11 02:51:43;;;;;;;27.70;19.30;;;;;;;18.47;100.00;98689.16;5070541;28;20207;-83
2022/06/11 02:54:10;;;;;;;24.90;18.03;;;;;;;18.46;100.00;98692.75;5070609;28;20792;-84
2022/06/11 02:56:36;;;;;;;27.27;18.23;;;;;;;18.43;100.00;98693.91;5070571;28;20841;-82
2022/06/11 02:59:02;;;;;;;30.90;18.57;;;;;;;18.46;100.00;98687.56;5070421;28;20791;-89
2022/06/11 03:01:29;;;;;;;31.70;19.40;;;;;;;18.43;100.00;98698.28;5070292;28;20215;-90
2022/06/11 03:03:55;;;;;;;29.90;19.93;;;;;;;18.41;100.00;98695.03;5069958;28;20740;-88
2022/06/11 03:06:24;;;;;;;31.43;19.53;;;;;;;18.34;100.00;98700.09;5070425;28;20213;-82
2022/06/11 03:08:50;;;;;;;31.43;20.90;;;;;;;18.36;100.00;98694.75;5070161;28;20279;-82
2022/06/11 03:11:17;;;;;;;35.30;21.07;;;;;;;18.43;100.00;98698.28;5070196;28;20266;-82
2022/06/11 03:13:43;;;;;;;34.70;21.30;;;;;;;18.46;100.00;98697.94;5070414;28;20610;-89
2022/06/11 03:16:12;;;;;;;31.70;21.50;;;;;;;18.49;100.00;98702.75;5069978;28;20233;-83
2022/06/11 03:18:38;;;;;;;32.43;21.30;;;;;;;18.44;100.00;98692.94;5070176;28;20217;-82
2022/06/11 03:21:05;;;;;;;32.27;21.87;;;;;;;18.48;100.00;98701.16;5069867;28;20233;-89
2022/06/11 03:23:32;;;;;;;30.97;21.40;;;;;;;18.52;100.00;98697.25;5069561;28;20236;-89
2022/06/11 03:25:59;;;;;;;32.37;21.80;;;;;;;18.55;100.00;98707.25;5069825;28;20232;-82
2022/06/11 03:28:28;;;;;;;31.77;20.63;;;;;;;18.52;100.00;98702.41;5070047;28;20210;-83
2022/06/11 03:30:56;;;;;;;32.30;20.97;;;;;;;18.51;100.00;98706.78;5070045;28;20558;-82
2022/06/11 03:33:24;;;;;;;30.43;20.97;;;;;;;18.48;100.00;98707.13;5070065;28;20224;-82
2022/06/11 03:35:51;;;;;;;29.70;19.40;;;;;;;18.50;100.00;98707.78;5069688;28;20319;-82
2022/06/11 03:38:19;;;;;;;27.27;18.87;;;;;;;18.49;100.00;98705.34;5069762;28;20469;-90
2022/06/11 03:40:46;;;;;;;27.83;19.77;;;;;;;18.53;100.00;98704.84;5069563;28;20225;-83
2022/06/11 03:43:13;;;;;;;29.57;18.80;;;;;;;18.54;100.00;98708.25;5069466;28;20237;-82
2022/06/11 03:45:40;;;;;;;31.67;18.63;;;;;;;18.54;100.00;98700.47;5069484;28;20269;-82
2022/06/11 03:48:07;;;;;;;27.23;18.50;;;;;;;18.55;100.00;98709.84;5069558;28;20223;-82
2022/06/11 03:50:36;;;;;;;29.00;17.97;;;;;;;18.64;100.00;98715.78;5069515;28;20239;-89
2022/06/11 03:53:04;;;;;;;27.53;18.80;;;;;;;18.61;100.00;98701.38;5069772;28;20226;-89
2022/06/11 03:55:30;;;;;;;29.17;19.80;;;;;;;18.63;100.00;98707.22;5069479;28;20229;-82
2022/06/11 03:57:58;;;;;;;26.50;18.43;;;;;;;18.59;100.00;98708.53;5069411;28;20275;-89
2022/06/11 04:03:14;;;;;;;26.77;18.00;;;;;;;18.65;100.00;98710.44;5069588;28;20460;-89
2022/06/11 04:05:42;;;;;;;28.10;19.43;;;;;;;18.58;100.00;98709.50;5069150;28;20232;-82
2022/06/11 04:08:10;;;;;;;32.47;20.80;;;;;;;18.61;100.00;98709.16;5069440;28;20217;-84
2022/06/11 04:10:37;;;;;;;32.50;20.30;;;;;;;18.59;100.00;98708.53;5069264;28;20264;-82
2022/06/11 04:13:05;;;;;;;29.83;20.90;;;;;;;18.64;100.00;98710.59;5069213;28;20261;-88
2022/06/11 04:15:31;;;;;;;33.17;20.73;;;;;;;18.67;100.00;98712.84;5069036;28;20288;-81
2022/06/11 04:17:59;;;;;;;29.50;21.03;;;;;;;18.65;100.00;98713.03;5069238;28;20267;-90
2022/06/11 04:20:25;;;;;;;30.83;20.90;;;;;;;18.68;100.00;98710.09;5069261;28;20234;-90
2022/06/11 04:22:51;;;;;;;28.47;20.07;;;;;;;18.71;100.00;98712.34;5069000;28;20230;-90
2022/06/11 04:25:18;;;;;;;31.40;21.40;;;;;;;18.72;100.00;98715.72;5068948;28;20232;-82
2022/06/11 04:27:45;;;;;;;34.00;22.33;;;;;;;18.73;100.00;98712.16;5068959;28;20213;-82
2022/06/11 04:30:17;;;;;;;30.37;21.53;;;;;;;18.73;100.00;98720.78;5069042;28;20254;-89
2022/06/11 04:32:43;;;;;;;30.23;21.03;;;;;;;18.76;100.00;98712.66;5068980;28;20217;-90
2022/06/11 04:35:09;;;;;;;35.07;21.37;;;;;;;18.80;100.00;98720.09;5069002;28;20242;-82
2022/06/11 04:37:36;;;;;;;30.23;21.40;;;;;;;18.82;100.00;98723.28;5068797;28;20213;-90
2022/06/11 04:40:07;;;;;;;33.20;21.60;;;;;;;18.85;100.00;98722.94;5068932;28;20239;-83
2022/06/11 04:42:35;;;;;;;29.43;20.90;;;;;;;18.88;100.00;98722.59;5068518;28;20210;-87
2022/06/11 04:45:02;;;;;;;31.43;20.97;;;;;;;18.89;100.00;98722.44;5068741;28;20244;-90
2022/06/11 04:47:30;;;;;;;30.03;20.50;;;;;;;18.94;100.00;98721.94;5069048;28;20213;-83
2022/06/11 04:49:59;;;;;;;31.03;20.40;;;;;;;19.02;100.00;98721.84;5068632;28;20296;-83
2022/06/11 04:52:26;;;;;;;31.03;19.27;;;;;;;19.11;100.00;98718.25;5068739;28;20215;-84
2022/06/11 04:54:52;;;;;;;29.43;18.40;;;;;;;19.19;100.00;98728.50;5068626;28;20236;-90
2022/06/11 04:57:20;;;;;;;28.60;19.50;;;;;;;19.30;100.00;98731.69;5068615;28;20257;-91
2022/06/11 04:59:46;;;;;;;24.60;18.30;;;;;;;19.36;100.00;98730.97;5068416;28;20242;-90
2022/06/11 05:02:13;;;;;;;25.70;17.90;;;;;;;19.45;100.00;98729.91;5068691;28;20405;-90
2022/06/11 05:04:40;;;;;;;24.00;15.67;;;;;;;19.50;100.00;98730.19;5068391;28;20237;-89
2022/06/11 05:07:07;;;;;;;22.57;15.27;;;;;;;19.58;100.00;98734.50;5068544;28;20221;-83
2022/06/11 05:09:33;;;;;;;22.07;15.27;;;;;;;19.68;100.00;98732.47;5068482;28;20252;-90
2022/06/11 05:12:00;;;;;;;22.37;15.23;;;;;;;19.73;100.00;98727.56;5072401;28;20219;-89
2022/06/11 05:14:27;;;;;;;21.03;15.43;;;;;;;19.84;100.00;98723.72;5075156;28;20246;-89
2022/06/11 05:16:56;;;;;;;21.17;15.43;;;;;;;19.94;100.00;98728.66;5075162;28;20230;-89
2022/06/11 05:19:23;;;;;;;21.97;14.83;;;;;;;19.94;100.00;98737.22;5075003;28;20276;-81
2022/06/11 05:21:51;;;;;;;21.27;14.50;;;;;;;19.94;100.00;98744.22;5075187;28;20315;-90
2022/06/11 05:24:19;;;;;;;21.83;14.13;;;;;;;19.99;100.00;98749.69;5074820;28;20608;-89
2022/06/11 05:26:49;;;;;;;21.87;15.03;;;;;;;20.00;100.00;98744.28;5074865;28;20221;-90
2022/06/11 05:29:22;;;;;;;21.17;14.90;;;;;;;20.03;100.00;98751.72;5074995;28;20252;-82
2022/06/11 05:31:48;;;;;;;21.13;14.77;;;;;;;20.03;100.00;98745.72;5075252;28;20624;-90
2022/06/11 05:34:15;;;;;;;18.67;14.73;;;;;;;20.00;100.00;98744.28;5075012;28;20776;-82
2022/06/11 05:36:41;;;;;;;21.43;15.37;;;;;;;20.05;100.00;98752.34;5075101;28;20224;-82
2022/06/11 05:39:08;;;;;;;19.67;15.03;;;;;;;20.04;100.00;98768.09;5074796;28;20305;-90
2022/06/11 05:41:34;;;;;;;22.27;15.40;;;;;;;20.13;100.00;98765.25;5074936;28;20227;-81
2022/06/11 05:44:01;;;;;;;19.43;14.40;;;;;;;20.19;100.00;98768.06;5074805;28;20242;-88
2022/06/11 05:46:27;;;;;;;20.80;14.13;;;;;;;20.26;100.00;98768.97;5074599;28;20224;-83
2022/06/11 05:48:58;;;;;;;18.70;13.67;;;;;;;20.33;100.00;98769.84;5075194;28;20663;-91
2022/06/11 05:51:31;;;;;;;25.03;14.63;;;;;;;20.37;100.00;98776.31;5074603;28;20214;-90
2022/06/11 05:54:01;;;;;;;20.83;14.27;;;;;;;20.41;100.00;98777.53;5075049;28;20215;-90
2022/06/11 05:56:28;;;;;;;19.90;13.77;;;;;;;20.45;100.00;98778.81;5074899;28;20267;-88
2022/06/11 05:58:58;;;;;;;16.77;13.90;;;;;;;20.54;100.00;98779.53;5074795;28;20304;-83
2022/06/11 06:01:29;;;;;;;20.47;13.53;;;;;;;20.67;100.00;98781.47;5074481;28;20219;-83
2022/06/11 06:03:55;;;;;;;18.83;12.37;;;;;;;20.67;100.00;98781.47;5074661;28;20236;-90
2022/06/11 06:06:22;;;;;;;17.47;13.00;;;;;;;20.74;100.00;98793.56;5074357;28;20218;-84
2022/06/11 06:08:48;;;;;;;17.73;12.50;;;;;;;20.75;99.39;98789.16;5074456;28;20222;-83
2022/06/11 06:11:14;;;;;;;18.07;12.70;;;;;;;20.80;99.06;98792.03;5074086;28;20304;-91
2022/06/11 06:13:47;;;;;;;19.63;12.30;;;;;;;20.78;98.88;98799.19;5074310;28;20219;-83
2022/06/11 06:16:13;;;;;;;17.57;12.37;;;;;;;20.76;99.04;98790.75;5074282;28;20218;-83
2022/06/11 06:18:39;;;;;;;16.70;13.10;;;;;;;20.78;99.07;98799.19;5074532;28;20280;-91
2022/06/11 06:21:06;;;;;;;18.60;13.37;;;;;;;20.79;99.68;98800.78;5074229;28;20241;-83
2022/06/11 06:23:33;;;;;;;17.30;13.00;;;;;;;20.85;100.00;98796.66;5070867;28;20246;-83
2022/06/11 06:25:59;;;;;;;17.13;13.70;;;;;;;20.86;99.42;98804.28;5070871;28;20243;-89
2022/06/11 06:28:25;;;;;;;18.23;13.67;;;;;;;20.88;98.91;98809.28;5070954;28;20306;-83
2022/06/11 06:30:53;;;;;;;17.83;13.23;;;;;;;20.81;98.19;98817.00;5070881;28;20232;-82
2022/06/11 06:33:19;;;;;;;18.40;13.63;;;;;;;20.69;99.12;98815.88;5070804;28;20478;-90
2022/06/11 06:35:45;;;;;;;19.10;13.20;;;;;;;20.54;99.93;98818.50;5070740;28;20496;-90
2022/06/11 06:38:11;;;;;;;20.73;13.03;;;;;;;20.37;100.00;98817.84;5070910;28;20312;-90
2022/06/11 06:40:38;;;;;;;18.87;13.40;;;;;;;20.35;100.00;98831.00;5070752;28;20264;-83
2022/06/11 06:43:04;;;;;;;17.50;13.97;;;;;;;20.23;100.00;98831.66;5070371;28;20231;-89
2022/06/11 06:45:30;;;;;;;19.83;13.90;;;;;;;20.23;100.00;98845.44;5070421;28;20234;-82
2022/06/11 06:47:57;;;;;;;20.10;14.10;;;;;;;20.17;100.00;98838.34;5071039;28;20210;-82
2022/06/11 06:50:23;;;;;;;19.57;13.73;;;;;;;20.12;100.00;98843.28;5070727;28;20626;-90
2022/06/11 06:52:50;;;;;;;18.93;13.70;;;;;;;20.11;100.00;98844.25;5070604;28;20270;-89
2022/06/11 06:55:16;;;;;;;20.93;14.53;;;;;;;20.06;100.00;98842.19;5070546;28;20237;-83
2022/06/11 06:57:42;;;;;;;22.87;14.13;;;;;;;20.03;100.00;98842.53;5070547;28;20222;-89
2022/06/11 07:00:11;;;;;;;19.63;13.33;;;;;;;19.98;100.00;98839.66;5070391;28;20443;-82
2022/06/11 07:02:37;;;;;;;21.23;14.23;;;;;;;19.99;100.00;98841.31;5070500;28;20221;-83
2022/06/11 07:05:05;;;;;;;20.77;14.07;;;;;;;20.07;100.00;98848.19;5070426;28;20636;-90
2022/06/11 07:07:33;;;;;;;20.60;14.47;;;;;;;20.11;100.00;98847.66;5070233;28;20597;-90
2022/06/11 07:09:59;;;;;;;19.73;14.77;;;;;;;20.13;100.00;98843.09;5070297;28;20230;-89
2022/06/11 07:12:25;;;;;;;22.27;14.93;;;;;;;20.12;100.00;98840.66;5070340;28;20222;-90
2022/06/11 07:14:52;;;;;;;20.43;14.33;;;;;;;20.13;100.00;98845.69;5070461;28;20234;-90
2022/06/11 07:17:19;;;;;;;20.73;15.23;;;;;;;20.12;100.00;98841.47;5070456;28;20221;-82
2022/06/11 07:19:50;;;;;;;22.33;14.30;;;;;;;20.16;100.00;98848.91;5070128;28;20320;-90
2022/06/11 07:22:20;;;;;;;25.17;15.13;;;;;;;20.19;100.00;98848.53;5070350;28;20218;-82
2022/06/11 07:24:46;;;;;;;20.37;15.30;;;;;;;20.18;100.00;98857.31;5069860;28;20624;-82
2022/06/11 07:27:15;;;;;;;20.77;15.50;;;;;;;20.16;100.00;98856.69;5070228;28;20708;-88
2022/06/11 07:29:45;;;;;;;22.30;16.03;;;;;;;20.06;100.00;98857.75;5069928;28;20714;-89
2022/06/11 07:32:17;;;;;;;23.30;16.43;;;;;;;20.06;100.00;98868.16;5069882;28;20271;-89
2022/06/11 07:34:43;;;;;;;21.97;16.40;;;;;;;20.04;100.00;98872.72;5069535;28;20242;-90
2022/06/11 07:37:10;;;;;;;26.00;18.03;;;;;;;20.05;100.00;98861.34;5069970;28;20250;-89
2022/06/11 07:39:37;;;;;;;28.30;19.30;;;;;;;20.00;100.00;98860.25;5069713;28;20236;-81
2022/06/11 07:42:04;;;;;;;29.00;19.50;;;;;;;19.89;100.00;98871.88;5069562;28;20754;-88
2022/06/11 07:44:31;;;;;;;28.83;19.83;;;;;;;19.85;100.00;98865.44;5069770;28;20245;-83
2022/06/11 07:46:57;;;;;;;29.10;20.63;;;;;;;19.87;100.00;98868.66;5069571;28;20205;-88
2022/06/11 07:49:24;;;;;;;27.33;20.70;;;;;;;19.97;100.00;98866.63;5069569;28;20249;-88
2022/06/11 07:51:51;;;;;;;27.80;19.73;;;;;;;19.97;100.00;98876.19;5069919;28;20221;-90
2022/06/11 07:54:17;;;;;;;25.07;16.80;;;;;;;20.00;100.00;98871.44;5070016;28;20234;-89
2022/06/11 07:56:44;;;;;;;20.83;15.17;;;;;;;20.02;100.00;98877.28;5069393;28;20354;-82
2022/06/11 07:59:10;;;;;;;19.57;15.10;;;;;;;20.29;100.00;98878.47;5069427;28;20236;-89
2022/06/11 08:01:37;;;;;;;20.97;15.00;;;;;;;20.40;100.00;98864.25;5069447;28;20226;-88
2022/06/11 08:04:03;;;;;;;21.17;15.97;;;;;;;20.57;100.00;98865.69;5069268;28;20681;-88
2022/06/11 08:06:31;;;;;;;20.73;14.80;;;;;;;20.64;100.00;98862.38;5069148;28;20229;-89
2022/06/11 08:08:57;;;;;;;16.30;12.77;;;;;;;20.58;100.00;98877.69;5069720;28;20207;-88
2022/06/11 08:11:24;;;;;;;12.70;9.77;;;;;;;20.57;98.49;98870.88;5069173;28;20271;-90
2022/06/11 08:13:51;;;;;;;17.03;10.23;;;;;;;20.61;98.89;98875.72;5069480;28;20214;-90
2022/06/11 08:16:17;;;;;;;11.73;9.67;;;;;;;20.60;98.37;98868.94;5069738;28;20241;-83
2022/06/11 08:18:44;;;;;;;11.07;9.10;;;;;;;20.62;98.05;98859.13;5069245;28;20592;-82
2022/06/11 08:21:10;;;;;;;11.23;8.90;;;;;;;20.65;98.64;98869.16;5069863;28;20656;-83
2022/06/11 08:23:36;;;;;;;11.53;9.07;;;;;;;20.67;98.30;98864.59;5069039;28;20239;-83
2022/06/11 08:26:03;;;;;;;12.20;9.30;;;;;;;20.72;98.13;98863.06;5069448;28;20271;-83
2022/06/11 08:28:29;;;;;;;13.30;9.43;;;;;;;20.80;98.72;98859.59;5068948;28;20211;-82
2022/06/11 08:30:56;;;;;;;11.97;8.80;;;;;;;20.82;98.50;98857.59;5069022;28;20232;-90
2022/06/11 08:33:22;;;;;;;11.70;8.77;;;;;;;20.86;96.57;98863.25;5069447;28;20217;-90
2022/06/11 08:35:48;;;;;;;9.87;8.37;;;;;;;20.79;95.66;98865.75;5068791;28;20617;-83
2022/06/11 08:38:15;;;;;;;11.43;8.80;;;;;;;20.91;97.96;98866.06;5068834;28;20235;-90
2022/06/11 08:40:44;;;;;;;12.17;8.90;;;;;;;20.79;95.30;98857.94;5068849;28;20227;-89
2022/06/11 08:43:21;;;;;;;10.47;8.80;;;;;;;20.83;97.58;98853.19;5068953;28;20770;-83
2022/06/11 08:45:50;;;;;;;11.77;8.90;;;;;;;20.80;96.87;98859.59;5068256;28;20234;-92
2022/06/11 08:48:30;;;;;;;11.60;8.60;;;;;;;20.82;97.44;98854.97;5069052;28;20227;-91
2022/06/11 08:51:04;;;;;;;8.63;7.33;;;;;;;20.84;94.54;98860.00;5068886;28;20360;-84
2022/06/11 08:53:32;;;;;;;8.30;6.20;;;;;;;20.89;92.65;98866.28;5068699;28;20601;-83
2022/06/11 08:55:59;;;;;;;8.67;6.67;;;;;;;20.97;92.96;98866.19;5068735;28;20244;-91
2022/06/11 08:58:40;;;;;;;8.73;6.70;;;;;;;21.01;92.83;98870.00;5068635;28;20226;-84
2022/06/11 09:01:13;;;;;;;7.73;6.20;;;;;;;21.06;92.36;98876.44;5068793;28;20216;-83
2022/06/11 09:03:55;;;;;;;8.40;6.17;;;;;;;21.05;91.55;98867.84;5068722;28;20259;-83
2022/06/11 09:06:55;;;;;;;6.00;5.40;;;;;;;20.95;90.64;98873.34;5068938;28;20220;-90
2022/06/11 09:09:34;;;;;;;8.17;5.50;;;;;;;20.98;90.77;98872.97;5063001;28;20242;-81
2022/06/11 09:12:14;;;;;;;8.27;6.20;;;;;;;21.11;92.23;98877.50;5068857;28;20195;-90
2022/06/11 09:14:59;;;;;;;7.13;6.10;;;;;;;21.21;91.77;98877.22;5068672;28;20658;-85
2022/06/11 09:17:51;;;;;;;7.20;5.93;;;;;;;21.34;91.54;98874.72;5068616;28;20232;-90
2022/06/11 09:20:37;;;;;;;8.10;7.03;;;;;;;21.47;91.76;98872.31;5065528;28;20728;-90
2022/06/11 09:23:24;;;;;;;7.40;6.27;;;;;;;21.56;89.96;98875.59;5068018;28;20661;-88
2022/06/11 09:26:04;;;;;;;9.40;5.97;;;;;;;21.69;88.30;98874.88;5068528;28;20816;-84
2022/06/11 09:28:40;;;;;;;8.00;6.23;;;;;;;21.82;88.04;98884.63;5068555;28;20692;-87
2022/06/11 09:31:12;;;;;;;8.10;6.20;;;;;;;22.03;87.84;98881.16;5068529;28;20711;-90
2022/06/11 09:33:42;;;;;;;5.73;4.80;;;;;;;22.20;84.71;98882.50;5068813;28;20571;-85
2022/06/11 09:36:15;;;;;;;7.07;5.37;;;;;;;22.46;83.55;98891.47;5068557;28;20222;-84
2022/06/11 09:38:49;;;;;;;5.55;4.90;;;;;;;22.62;81.73;98875.50;5068583;28;20233;-83
2022/06/11 09:41:26;;;;;;;7.22;4.78;;;;;;;22.70;81.47;98883.16;5068444;28;20481;-91
2022/06/11 09:43:58;;;;;;;5.70;5.05;;;;;;;22.68;81.02;98879.94;5068029;28;20492;-90
2022/06/11 09:46:33;;;;;;;6.40;5.10;;;;;;;22.77;81.85;98884.00;5068175;28;20272;-89
2022/06/11 09:49:19;;;;;;;5.20;4.70;;;;;;;22.95;81.95;98878.28;5068206;28;20224;-82
2022/06/11 09:51:52;;;;;;;6.80;5.10;;;;;;;22.96;79.00;98881.69;5068079;28;20268;-83
2022/06/11 09:54:43;;;;;;;6.13;5.20;;;;;;;22.95;79.75;98875.69;5068013;28;20798;-90
2022/06/11 09:57:20;;;;;;;4.85;4.35;;;;;;;23.04;78.77;98881.53;5067803;28;20268;-90
2022/06/11 09:59:50;;;;;;;6.60;4.78;;;;;;;23.22;80.32;98881.75;5071166;28;20253;-82
2022/06/11 10:02:26;;;;;;;5.88;4.55;;;;;;;23.19;78.48;98887.38;5071251;28;20206;-83
2022/06/11 10:04:55;;;;;;;6.63;4.57;;;;;;;23.24;77.65;98879.78;5071285;28;20257;-90
2022/06/11 10:07:26;;;;;;;6.22;4.05;;;;;;;23.14;76.21;98884.56;5071538;28;20253;-83
2022/06/11 10:09:58;;;;;;;4.93;4.43;;;;;;;23.25;79.01;98881.38;5071244;28;20227;-84
2022/06/11 10:12:29;;;;;;;4.78;3.60;;;;;;;23.37;76.57;98880.78;5071483;28;20363;-90
2022/06/11 10:15:01;;;;;;;4.40;3.45;;;;;;;23.39;74.51;98889.22;5071550;28;20242;-90
2022/06/11 10:17:34;;;;;;;4.25;3.85;;;;;;;23.22;75.66;98881.75;5071178;28;20214;-89
2022/06/11 10:20:07;;;;;;;4.30;3.90;;;;;;;23.31;76.18;98876.38;5071556;28;20230;-82
2022/06/11 10:22:43;;;;;;;4.97;4.32;;;;;;;23.38;76.91;98879.78;5071219;28;20292;-90
2022/06/11 10:25:23;;;;;;;5.32;4.13;;;;;;;23.49;77.19;98887.81;5070856;28;20234;-89
2022/06/11 10:28:00;;;;;;;4.45;3.60;;;;;;;23.47;73.44;98883.81;5070856;28;20206;-89
2022/06/11 10:30:45;;;;;;;4.07;3.53;;;;;;;23.35;73.63;98890.63;5071126;28;20674;-82
2022/06/11 10:33:19;;;;;;;6.13;4.28;;;;;;;23.04;75.43;98884.13;5070939;28;20210;-89
2022/06/11 10:35:49;;;;;;;6.13;4.45;;;;;;;22.92;76.24;98883.88;5070710;28;20230;-89
2022/06/11 10:38:36;;;;;;;6.10;4.30;;;;;;;22.93;76.31;98882.06;5070806;28;20222;-83
2022/06/11 10:41:05;;;;;;;4.65;4.15;;;;;;;22.96;78.87;98881.69;5070710;28;20238;-83
2022/06/11 10:43:40;;;;;;;5.07;4.57;;;;;;;23.05;79.24;98885.72;5070561;28;20231;-88
2022/06/11 10:46:10;;;;;;;6.63;4.72;;;;;;;23.01;77.99;98887.13;5070727;28;20209;-90
2022/06/11 10:48:37;;;;;;;12.55;5.40;;;;;;;23.00;77.62;98893.34;5070573;28;20758;-89
2022/06/11 10:51:18;;;;;;;6.70;5.03;;;;;;;22.90;79.10;98882.44;5070654;28;20222;-90
2022/06/11 10:53:59;;;;;;;7.75;5.50;;;;;;;22.81;81.34;98881.81;5070370;28;20202;-82
2022/06/11 10:56:37;;;;;;;6.90;5.30;;;;;;;22.67;82.27;98878.34;5070476;28;20225;-89
2022/06/11 10:59:06;;;;;;;5.93;5.32;;;;;;;22.75;83.55;98875.56;5070761;28;20713;-83
2022/06/11 11:01:37;;;;;;;8.35;5.93;;;;;;;22.83;83.29;98883.25;5070232;28;20259;-89
2022/06/11 11:04:19;;;;;;;7.18;6.47;;;;;;;22.86;84.11;98876.00;5070399;28;20230;-89
2022/06/11 11:06:45;;;;;;;7.55;6.25;;;;;;;22.82;84.21;98871.19;5070441;28;20261;-90
2022/06/11 11:09:20;;;;;;;8.45;6.90;;;;;;;22.93;84.33;98876.84;5069821;28;20238;-84
2022/06/11 11:11:50;;;;;;;8.10;6.95;;;;;;;23.00;85.83;98875.09;5070560;28;20214;-89
2022/06/11 11:14:18;;;;;;;9.68;7.07;;;;;;;23.03;85.42;98874.69;5070312;28;20230;-82
2022/06/11 11:16:50;;;;;;;8.52;6.95;;;;;;;23.01;84.30;98877.50;5070296;28;20733;-83
2022/06/11 11:19:22;;;;;;;8.80;7.13;;;;;;;22.98;84.51;98879.69;5070107;28;20227;-89
2022/06/11 11:21:53;;;;;;;9.57;7.22;;;;;;;22.95;84.19;98883.50;5069981;28;20731;-89
2022/06/11 11:24:23;;;;;;;8.45;7.45;;;;;;;22.93;82.22;98876.84;5070149;28;20277;-90
2022/06/11 11:26:54;;;;;;;8.20;7.18;;;;;;;22.97;81.51;98873.66;5070071;28;20218;-83
2022/06/11 11:29:24;;;;;;;8.43;7.30;;;;;;;23.07;82.10;98882.91;5069928;28;20591;-89
2022/06/11 11:31:54;;;;;;;10.02;7.22;;;;;;;22.94;82.97;98881.06;5069952;28;20222;-82
2022/06/11 11:34:25;;;;;;;7.95;7.13;;;;;;;22.94;82.89;98875.84;5070247;28;20820;-89
2022/06/11 11:36:57;;;;;;;8.88;7.60;;;;;;;22.97;82.88;98872.88;5069885;28;20284;-89